sensor_id;sensor_type;location;lat;lon;timestamp;P1;durP1;ratioP1;P2;durP2;ratioP2
36963;SDS011;22878;48.616;35.326;2023-02-18T00:00:06;33.30;;;13.50;;
36963;SDS011;22878;48.616;35.326;2023-02-18T00:02:34;36.20;;;14.10;;
36963;SDS011;22878;48.616;35.326;2023-02-18T00:04:59;30.20;;;12.70;;
36963;SDS011;22878;48.616;35.326;2023-02-18T00:07:25;32.60;;;12.80;;
36963;SDS011;22878;48.616;35.326;2023-02-18T00:09:50;32.00;;;12.80;;
36963;SDS011;22878;48.616;35.326;2023-02-18T00:12:16;34.60;;;14.10;;
36963;SDS011;22878;48.616;35.326;2023-02-18T00:14:41;34.20;;;14.10;;
36963;SDS011;22878;48.616;35.326;2023-02-18T00:17:07;38.80;;;13.90;;
36963;SDS011;22878;48.616;35.326;2023-02-18T00:19:32;39.30;;;13.10;;
36963;SDS011;22878;48.616;35.326;2023-02-18T00:21:58;41.20;;;13.30;;
36963;SDS011;22878;48.616;35.326;2023-02-18T00:24:24;31.10;;;11.80;;
36963;SDS011;22878;48.616;35.326;2023-02-18T00:26:50;39.50;;;13.20;;
36963;SDS011;22878;48.616;35.326;2023-02-18T00:29:16;36.90;;;12.20;;
36963;SDS011;22878;48.616;35.326;2023-02-18T00:31:42;33.80;;;12.30;;
36963;SDS011;22878;48.616;35.326;2023-02-18T00:34:08;35.30;;;12.40;;
36963;SDS011;22878;48.616;35.326;2023-02-18T00:36:35;33.80;;;12.40;;
36963;SDS011;22878;48.616;35.326;2023-02-18T00:39:01;29.30;;;12.40;;
36963;SDS011;22878;48.616;35.326;2023-02-18T00:41:28;35.20;;;13.50;;
36963;SDS011;22878;48.616;35.326;2023-02-18T00:43:55;30.30;;;12.70;;
36963;SDS011;22878;48.616;35.326;2023-02-18T00:46:21;28.00;;;13.30;;
36963;SDS011;22878;48.616;35.326;2023-02-18T00:48:48;38.30;;;13.70;;
36963;SDS011;22878;48.616;35.326;2023-02-18T00:51:13;33.00;;;11.80;;
36963;SDS011;22878;48.616;35.326;2023-02-18T00:53:39;36.50;;;13.20;;
36963;SDS011;22878;48.616;35.326;2023-02-18T00:56:05;34.00;;;11.50;;
36963;SDS011;22878;48.616;35.326;2023-02-18T00:58:31;29.50;;;11.10;;
36963;SDS011;22878;48.616;35.326;2023-02-18T01:00:57;26.20;;;11.00;;
36963;SDS011;22878;48.616;35.326;2023-02-18T01:03:22;42.10;;;16.00;;
36963;SDS011;22878;48.616;35.326;2023-02-18T01:05:49;45.40;;;17.10;;
36963;SDS011;22878;48.616;35.326;2023-02-18T01:08:16;39.50;;;16.00;;
36963;SDS011;22878;48.616;35.326;2023-02-18T01:10:44;31.50;;;13.10;;
36963;SDS011;22878;48.616;35.326;2023-02-18T01:13:13;28.40;;;11.30;;
36963;SDS011;22878;48.616;35.326;2023-02-18T01:15:40;35.00;;;12.50;;
36963;SDS011;22878;48.616;35.326;2023-02-18T01:18:07;36.30;;;11.50;;
36963;SDS011;22878;48.616;35.326;2023-02-18T01:20:34;34.20;;;11.80;;
36963;SDS011;22878;48.616;35.326;2023-02-18T01:23:01;24.90;;;10.30;;
36963;SDS011;22878;48.616;35.326;2023-02-18T01:25:27;29.60;;;12.30;;
36963;SDS011;22878;48.616;35.326;2023-02-18T01:27:52;29.60;;;11.30;;
36963;SDS011;22878;48.616;35.326;2023-02-18T01:30:18;35.10;;;11.80;;
36963;SDS011;22878;48.616;35.326;2023-02-18T01:32:45;39.10;;;11.30;;
36963;SDS011;22878;48.616;35.326;2023-02-18T01:35:12;33.70;;;12.10;;
36963;SDS011;22878;48.616;35.326;2023-02-18T01:37:39;28.30;;;10.20;;
36963;SDS011;22878;48.616;35.326;2023-02-18T01:40:05;39.70;;;11.60;;
36963;SDS011;22878;48.616;35.326;2023-02-18T01:42:32;33.70;;;11.10;;
36963;SDS011;22878;48.616;35.326;2023-02-18T01:48:07;28.60;;;11.90;;
36963;SDS011;22878;48.616;35.326;2023-02-18T01:50:37;34.60;;;12.20;;
36963;SDS011;22878;48.616;35.326;2023-02-18T01:53:07;34.40;;;12.20;;
36963;SDS011;22878;48.616;35.326;2023-02-18T01:55:33;36.80;;;12.40;;
36963;SDS011;22878;48.616;35.326;2023-02-18T01:58:01;36.30;;;12.10;;
36963;SDS011;22878;48.616;35.326;2023-02-18T02:00:27;34.70;;;12.20;;
36963;SDS011;22878;48.616;35.326;2023-02-18T02:02:53;41.90;;;13.10;;
36963;SDS011;22878;48.616;35.326;2023-02-18T02:05:19;33.70;;;12.50;;
36963;SDS011;22878;48.616;35.326;2023-02-18T02:07:46;35.90;;;11.90;;
36963;SDS011;22878;48.616;35.326;2023-02-18T02:10:15;36.20;;;11.80;;
36963;SDS011;22878;48.616;35.326;2023-02-18T02:15:32;35.40;;;11.20;;
36963;SDS011;22878;48.616;35.326;2023-02-18T02:27:13;39.10;;;12.80;;
36963;SDS011;22878;48.616;35.326;2023-02-18T02:37:53;40.50;;;14.60;;
36963;SDS011;22878;48.616;35.326;2023-02-18T02:40:24;42.80;;;14.70;;
36963;SDS011;22878;48.616;35.326;2023-02-18T02:46:18;38.70;;;14.10;;
36963;SDS011;22878;48.616;35.326;2023-02-18T02:54:23;38.60;;;14.60;;
36963;SDS011;22878;48.616;35.326;2023-02-18T02:57:03;44.30;;;14.70;;
36963;SDS011;22878;48.616;35.326;2023-02-18T02:59:54;44.10;;;15.30;;
36963;SDS011;22878;48.616;35.326;2023-02-18T03:11:05;48.10;;;16.90;;
36963;SDS011;22878;48.616;35.326;2023-02-18T03:16:34;54.40;;;17.40;;
36963;SDS011;22878;48.616;35.326;2023-02-18T03:21:44;55.30;;;18.10;;
36963;SDS011;22878;48.616;35.326;2023-02-18T03:26:49;60.00;;;19.50;;
36963;SDS011;22878;48.616;35.326;2023-02-18T03:29:18;58.80;;;20.70;;
36963;SDS011;22878;48.616;35.326;2023-02-18T03:31:46;79.20;;;26.60;;
36963;SDS011;22878;48.616;35.326;2023-02-18T03:34:17;105.60;;;38.90;;
36963;SDS011;22878;48.616;35.326;2023-02-18T03:36:47;82.60;;;29.00;;
36963;SDS011;22878;48.616;35.326;2023-02-18T03:39:14;229.00;;;79.90;;
36963;SDS011;22878;48.616;35.326;2023-02-18T03:41:42;128.90;;;45.10;;
36963;SDS011;22878;48.616;35.326;2023-02-18T03:44:08;93.30;;;33.20;;
36963;SDS011;22878;48.616;35.326;2023-02-18T03:46:35;94.20;;;32.60;;
36963;SDS011;22878;48.616;35.326;2023-02-18T03:49:02;69.70;;;22.90;;
36963;SDS011;22878;48.616;35.326;2023-02-18T03:51:28;68.90;;;23.90;;
36963;SDS011;22878;48.616;35.326;2023-02-18T03:53:53;69.70;;;23.20;;
36963;SDS011;22878;48.616;35.326;2023-02-18T03:56:19;75.40;;;27.50;;
36963;SDS011;22878;48.616;35.326;2023-02-18T03:58:45;79.30;;;25.50;;
36963;SDS011;22878;48.616;35.326;2023-02-18T04:01:11;76.90;;;25.50;;
36963;SDS011;22878;48.616;35.326;2023-02-18T04:03:36;74.70;;;26.40;;
36963;SDS011;22878;48.616;35.326;2023-02-18T04:06:02;76.90;;;25.70;;
36963;SDS011;22878;48.616;35.326;2023-02-18T04:08:28;77.50;;;27.40;;
36963;SDS011;22878;48.616;35.326;2023-02-18T04:10:53;76.40;;;25.80;;
36963;SDS011;22878;48.616;35.326;2023-02-18T04:13:19;75.20;;;26.20;;
36963;SDS011;22878;48.616;35.326;2023-02-18T04:15:45;71.50;;;26.40;;
36963;SDS011;22878;48.616;35.326;2023-02-18T04:18:12;66.70;;;24.30;;
36963;SDS011;22878;48.616;35.326;2023-02-18T04:20:38;63.10;;;22.10;;
36963;SDS011;22878;48.616;35.326;2023-02-18T04:23:04;59.10;;;21.50;;
36963;SDS011;22878;48.616;35.326;2023-02-18T04:25:29;63.60;;;22.60;;
36963;SDS011;22878;48.616;35.326;2023-02-18T04:27:55;74.70;;;24.90;;
36963;SDS011;22878;48.616;35.326;2023-02-18T04:30:21;64.90;;;23.70;;
36963;SDS011;22878;48.616;35.326;2023-02-18T04:32:47;67.00;;;21.60;;
36963;SDS011;22878;48.616;35.326;2023-02-18T04:35:13;67.10;;;20.50;;
36963;SDS011;22878;48.616;35.326;2023-02-18T04:37:39;60.10;;;20.40;;
36963;SDS011;22878;48.616;35.326;2023-02-18T04:40:04;61.50;;;21.00;;
36963;SDS011;22878;48.616;35.326;2023-02-18T04:42:31;64.00;;;20.60;;
36963;SDS011;22878;48.616;35.326;2023-02-18T04:44:56;61.00;;;21.50;;
36963;SDS011;22878;48.616;35.326;2023-02-18T04:47:22;64.00;;;19.40;;
36963;SDS011;22878;48.616;35.326;2023-02-18T04:49:47;56.80;;;19.20;;
36963;SDS011;22878;48.616;35.326;2023-02-18T04:52:13;63.00;;;20.90;;
36963;SDS011;22878;48.616;35.326;2023-02-18T04:54:39;71.40;;;22.70;;
36963;SDS011;22878;48.616;35.326;2023-02-18T04:57:04;68.10;;;22.80;;
36963;SDS011;22878;48.616;35.326;2023-02-18T04:59:30;71.20;;;23.70;;
36963;SDS011;22878;48.616;35.326;2023-02-18T05:01:55;78.50;;;25.80;;
36963;SDS011;22878;48.616;35.326;2023-02-18T05:04:21;77.90;;;26.50;;
36963;SDS011;22878;48.616;35.326;2023-02-18T05:06:47;72.10;;;23.90;;
36963;SDS011;22878;48.616;35.326;2023-02-18T05:09:13;74.50;;;24.70;;
36963;SDS011;22878;48.616;35.326;2023-02-18T05:11:40;72.30;;;23.70;;
36963;SDS011;22878;48.616;35.326;2023-02-18T05:14:06;67.50;;;21.60;;
36963;SDS011;22878;48.616;35.326;2023-02-18T05:16:31;65.60;;;22.00;;
36963;SDS011;22878;48.616;35.326;2023-02-18T05:18:57;69.80;;;23.20;;
36963;SDS011;22878;48.616;35.326;2023-02-18T05:21:22;71.90;;;22.20;;
36963;SDS011;22878;48.616;35.326;2023-02-18T05:23:48;69.50;;;24.90;;
36963;SDS011;22878;48.616;35.326;2023-02-18T05:26:13;73.60;;;26.10;;
36963;SDS011;22878;48.616;35.326;2023-02-18T05:28:39;77.70;;;22.00;;
36963;SDS011;22878;48.616;35.326;2023-02-18T05:31:04;71.20;;;22.40;;
36963;SDS011;22878;48.616;35.326;2023-02-18T05:33:30;70.20;;;20.90;;
36963;SDS011;22878;48.616;35.326;2023-02-18T05:35:55;69.60;;;22.30;;
36963;SDS011;22878;48.616;35.326;2023-02-18T05:38:21;72.40;;;22.10;;
36963;SDS011;22878;48.616;35.326;2023-02-18T05:40:47;69.00;;;20.80;;
36963;SDS011;22878;48.616;35.326;2023-02-18T05:43:12;63.30;;;22.10;;
36963;SDS011;22878;48.616;35.326;2023-02-18T05:45:38;61.50;;;21.00;;
36963;SDS011;22878;48.616;35.326;2023-02-18T05:48:04;57.70;;;19.10;;
36963;SDS011;22878;48.616;35.326;2023-02-18T05:50:29;60.80;;;20.40;;
36963;SDS011;22878;48.616;35.326;2023-02-18T05:52:55;67.90;;;20.40;;
36963;SDS011;22878;48.616;35.326;2023-02-18T05:55:20;70.80;;;20.80;;
36963;SDS011;22878;48.616;35.326;2023-02-18T05:57:46;63.00;;;20.80;;
36963;SDS011;22878;48.616;35.326;2023-02-18T06:00:12;65.00;;;20.80;;
36963;SDS011;22878;48.616;35.326;2023-02-18T06:02:38;67.20;;;20.10;;
36963;SDS011;22878;48.616;35.326;2023-02-18T06:05:03;70.90;;;21.50;;
36963;SDS011;22878;48.616;35.326;2023-02-18T06:07:30;71.60;;;20.10;;
36963;SDS011;22878;48.616;35.326;2023-02-18T06:09:55;57.20;;;18.20;;
36963;SDS011;22878;48.616;35.326;2023-02-18T06:12:21;59.30;;;19.90;;
36963;SDS011;22878;48.616;35.326;2023-02-18T06:14:46;60.60;;;19.30;;
36963;SDS011;22878;48.616;35.326;2023-02-18T06:17:12;63.90;;;20.50;;
36963;SDS011;22878;48.616;35.326;2023-02-18T06:19:38;62.80;;;19.30;;
36963;SDS011;22878;48.616;35.326;2023-02-18T06:22:04;62.60;;;19.70;;
36963;SDS011;22878;48.616;35.326;2023-02-18T06:24:30;61.80;;;20.10;;
36963;SDS011;22878;48.616;35.326;2023-02-18T06:26:55;58.50;;;18.30;;
36963;SDS011;22878;48.616;35.326;2023-02-18T06:29:21;54.70;;;18.60;;
36963;SDS011;22878;48.616;35.326;2023-02-18T06:31:47;50.90;;;17.20;;
36963;SDS011;22878;48.616;35.326;2023-02-18T06:34:13;54.50;;;19.60;;
36963;SDS011;22878;48.616;35.326;2023-02-18T06:36:38;54.50;;;17.10;;
36963;SDS011;22878;48.616;35.326;2023-02-18T06:39:04;50.70;;;17.70;;
36963;SDS011;22878;48.616;35.326;2023-02-18T06:41:30;49.10;;;16.50;;
36963;SDS011;22878;48.616;35.326;2023-02-18T06:43:55;48.20;;;16.40;;
36963;SDS011;22878;48.616;35.326;2023-02-18T06:46:21;48.40;;;16.50;;
36963;SDS011;22878;48.616;35.326;2023-02-18T06:48:46;52.00;;;18.40;;
36963;SDS011;22878;48.616;35.326;2023-02-18T06:51:12;58.20;;;16.60;;
36963;SDS011;22878;48.616;35.326;2023-02-18T06:53:40;47.00;;;15.90;;
36963;SDS011;22878;48.616;35.326;2023-02-18T06:56:06;47.00;;;15.70;;
36963;SDS011;22878;48.616;35.326;2023-02-18T06:58:32;44.10;;;15.40;;
36963;SDS011;22878;48.616;35.326;2023-02-18T07:00:57;53.60;;;17.30;;
36963;SDS011;22878;48.616;35.326;2023-02-18T07:03:23;43.80;;;15.40;;
36963;SDS011;22878;48.616;35.326;2023-02-18T07:05:49;48.60;;;15.70;;
36963;SDS011;22878;48.616;35.326;2023-02-18T07:08:14;44.30;;;15.40;;
36963;SDS011;22878;48.616;35.326;2023-02-18T07:10:40;48.90;;;15.30;;
36963;SDS011;22878;48.616;35.326;2023-02-18T07:13:06;43.40;;;14.40;;
36963;SDS011;22878;48.616;35.326;2023-02-18T07:15:31;42.90;;;13.70;;
36963;SDS011;22878;48.616;35.326;2023-02-18T07:17:57;41.10;;;13.70;;
36963;SDS011;22878;48.616;35.326;2023-02-18T07:20:23;39.30;;;12.80;;
36963;SDS011;22878;48.616;35.326;2023-02-18T07:22:49;35.70;;;11.80;;
36963;SDS011;22878;48.616;35.326;2023-02-18T07:25:16;35.10;;;11.80;;
36963;SDS011;22878;48.616;35.326;2023-02-18T07:27:41;40.70;;;12.90;;
36963;SDS011;22878;48.616;35.326;2023-02-18T07:30:07;34.30;;;12.50;;
36963;SDS011;22878;48.616;35.326;2023-02-18T07:32:34;36.00;;;12.30;;
36963;SDS011;22878;48.616;35.326;2023-02-18T07:34:59;32.70;;;11.20;;
36963;SDS011;22878;48.616;35.326;2023-02-18T07:37:25;31.70;;;11.30;;
36963;SDS011;22878;48.616;35.326;2023-02-18T07:39:51;33.20;;;10.90;;
36963;SDS011;22878;48.616;35.326;2023-02-18T07:42:16;29.50;;;10.80;;
36963;SDS011;22878;48.616;35.326;2023-02-18T07:44:42;24.20;;;9.30;;
36963;SDS011;22878;48.616;35.326;2023-02-18T07:47:09;26.30;;;9.90;;
36963;SDS011;22878;48.616;35.326;2023-02-18T07:49:36;34.50;;;12.20;;
36963;SDS011;22878;48.616;35.326;2023-02-18T07:52:02;24.40;;;9.70;;
36963;SDS011;22878;48.616;35.326;2023-02-18T07:54:27;27.50;;;8.80;;
36963;SDS011;22878;48.616;35.326;2023-02-18T07:56:53;29.60;;;10.00;;
36963;SDS011;22878;48.616;35.326;2023-02-18T07:59:19;24.10;;;8.90;;
36963;SDS011;22878;48.616;35.326;2023-02-18T08:01:44;23.60;;;8.40;;
36963;SDS011;22878;48.616;35.326;2023-02-18T08:04:10;24.90;;;8.20;;
36963;SDS011;22878;48.616;35.326;2023-02-18T08:06:37;21.60;;;8.00;;
36963;SDS011;22878;48.616;35.326;2023-02-18T08:09:07;22.20;;;8.60;;
36963;SDS011;22878;48.616;35.326;2023-02-18T08:11:33;19.10;;;7.70;;
36963;SDS011;22878;48.616;35.326;2023-02-18T08:13:59;20.20;;;7.70;;
36963;SDS011;22878;48.616;35.326;2023-02-18T08:16:25;20.00;;;7.40;;
36963;SDS011;22878;48.616;35.326;2023-02-18T08:18:51;18.20;;;7.30;;
36963;SDS011;22878;48.616;35.326;2023-02-18T08:21:18;20.50;;;7.20;;
36963;SDS011;22878;48.616;35.326;2023-02-18T08:23:45;20.70;;;7.40;;
36963;SDS011;22878;48.616;35.326;2023-02-18T08:26:11;20.70;;;8.20;;
36963;SDS011;22878;48.616;35.326;2023-02-18T08:28:37;21.20;;;7.70;;
36963;SDS011;22878;48.616;35.326;2023-02-18T08:31:03;18.60;;;7.50;;
36963;SDS011;22878;48.616;35.326;2023-02-18T08:33:28;19.80;;;8.00;;
36963;SDS011;22878;48.616;35.326;2023-02-18T08:35:55;23.20;;;7.90;;
36963;SDS011;22878;48.616;35.326;2023-02-18T08:38:21;21.70;;;8.70;;
36963;SDS011;22878;48.616;35.326;2023-02-18T08:40:47;32.90;;;11.00;;
36963;SDS011;22878;48.616;35.326;2023-02-18T08:43:16;24.20;;;9.00;;
36963;SDS011;22878;48.616;35.326;2023-02-18T08:45:43;27.00;;;9.30;;
36963;SDS011;22878;48.616;35.326;2023-02-18T08:48:09;29.90;;;10.00;;
36963;SDS011;22878;48.616;35.326;2023-02-18T08:50:37;29.30;;;10.90;;
36963;SDS011;22878;48.616;35.326;2023-02-18T08:53:03;28.50;;;9.80;;
36963;SDS011;22878;48.616;35.326;2023-02-18T08:55:29;26.20;;;10.30;;
36963;SDS011;22878;48.616;35.326;2023-02-18T08:57:55;30.80;;;11.00;;
36963;SDS011;22878;48.616;35.326;2023-02-18T09:00:23;28.70;;;10.50;;
36963;SDS011;22878;48.616;35.326;2023-02-18T09:02:49;35.20;;;11.30;;
36963;SDS011;22878;48.616;35.326;2023-02-18T09:05:15;28.50;;;11.00;;
36963;SDS011;22878;48.616;35.326;2023-02-18T09:07:41;32.80;;;11.90;;
36963;SDS011;22878;48.616;35.326;2023-02-18T09:10:10;32.30;;;10.90;;
36963;SDS011;22878;48.616;35.326;2023-02-18T09:12:35;31.20;;;12.10;;
36963;SDS011;22878;48.616;35.326;2023-02-18T09:15:01;30.30;;;10.80;;
36963;SDS011;22878;48.616;35.326;2023-02-18T09:17:29;33.70;;;11.60;;
36963;SDS011;22878;48.616;35.326;2023-02-18T09:19:55;55.10;;;20.60;;
36963;SDS011;22878;48.616;35.326;2023-02-18T09:22:21;76.80;;;30.40;;
36963;SDS011;22878;48.616;35.326;2023-02-18T09:24:46;107.90;;;40.90;;
36963;SDS011;22878;48.616;35.326;2023-02-18T09:27:12;174.90;;;74.30;;
36963;SDS011;22878;48.616;35.326;2023-02-18T09:29:38;71.50;;;28.10;;
36963;SDS011;22878;48.616;35.326;2023-02-18T09:32:05;49.10;;;17.20;;
36963;SDS011;22878;48.616;35.326;2023-02-18T09:34:32;46.80;;;17.60;;
36963;SDS011;22878;48.616;35.326;2023-02-18T09:36:58;44.40;;;16.60;;
36963;SDS011;22878;48.616;35.326;2023-02-18T09:39:24;43.00;;;16.10;;
36963;SDS011;22878;48.616;35.326;2023-02-18T09:41:51;49.00;;;17.00;;
36963;SDS011;22878;48.616;35.326;2023-02-18T09:49:27;46.50;;;17.00;;
36963;SDS011;22878;48.616;35.326;2023-02-18T09:52:00;46.10;;;16.30;;
36963;SDS011;22878;48.616;35.326;2023-02-18T09:54:31;48.70;;;16.40;;
36963;SDS011;22878;48.616;35.326;2023-02-18T09:58:25;50.30;;;17.00;;
36963;SDS011;22878;48.616;35.326;2023-02-18T10:01:31;46.50;;;16.70;;
